Time;durP1;ratioP1;P1;durP2;ratioP2;P2;SDS_P1;SDS_P2;PMS_P1;PMS_P2;Temp;Humidity;BMP_temperature;BMP_pressure;BME280_temperature;BME280_humidity;BME280_pressure;Samples;Min_cycle;Max_cycle;Signal;HPM_P1;HPM_P2
2023/02/25 00:00:33;;;;;;;23.67;3.47;;;;;;;2.90;100.00;100416.75;4966353;28;20034;-79
2023/02/25 00:02:58;;;;;;;18.65;3.38;;;;;;;2.88;100.00;100416.88;4970447;28;20545;-78
2023/02/25 00:05:25;;;;;;;33.58;4.35;;;;;;;2.78;100.00;100426.16;4970237;28;20126;-79
2023/02/25 00:07:50;;;;;;;15.98;2.95;;;;;;;2.75;100.00;100418.72;4985687;28;20027;-79
2023/02/25 00:10:16;;;;;;;17.48;2.88;;;;;;;2.79;100.00;100429.53;4967607;28;20038;-79
2023/02/25 00:12:42;;;;;;;22.85;3.55;;;;;;;2.81;100.00;100430.25;4983714;28;20035;-79
2023/02/25 00:15:09;;;;;;;15.80;2.95;;;;;;;2.67;100.00;100433.84;4974370;28;20058;-79
2023/02/25 00:17:35;;;;;;;14.90;2.67;;;;;;;2.64;100.00;100437.44;4968811;28;20032;-79
2023/02/25 00:20:00;;;;;;;13.40;3.58;;;;;;;2.70;100.00;100425.94;4986188;28;20027;-79
2023/02/25 00:22:27;;;;;;;17.30;3.08;;;;;;;2.60;100.00;100427.53;4985025;28;20500;-79
2023/02/25 00:24:54;;;;;;;25.17;2.83;;;;;;;2.61;100.00;100419.75;4952047;28;20053;-79
2023/02/25 00:27:20;;;;;;;16.02;2.47;;;;;;;2.69;100.00;100421.72;4970093;28;20050;-79
2023/02/25 00:29:46;;;;;;;12.52;2.50;;;;;;;2.59;100.00;100420.78;4955771;28;20031;-78
2023/02/25 00:32:11;;;;;;;21.63;3.85;;;;;;;2.57;100.00;100425.22;4954540;28;20228;-79
2023/02/25 00:34:36;;;;;;;16.92;2.45;;;;;;;2.56;100.00;100421.00;4956071;28;20608;-79
2023/02/25 00:37:03;;;;;;;23.73;2.72;;;;;;;2.42;100.00;100427.16;4985880;28;20038;-79
2023/02/25 00:39:40;;;;;;;20.23;2.72;;;;;;;2.53;100.00;100416.94;4980200;28;20439;-79
2023/02/25 00:42:14;;;;;;;27.05;4.57;;;;;;;2.53;100.00;100417.75;4969043;28;20108;-76
2023/02/25 00:44:46;;;;;;;17.50;3.65;;;;;;;2.58;100.00;100416.59;4985750;28;20189;-79
2023/02/25 00:47:14;;;;;;;12.52;2.47;;;;;;;2.49;100.00;100415.53;4968227;28;20035;-78
2023/02/25 00:49:40;;;;;;;19.15;3.25;;;;;;;2.45;100.00;100416.66;4955160;28;20039;-78
2023/02/25 00:52:05;;;;;;;12.98;3.03;;;;;;;2.56;100.00;100415.88;4984338;28;20034;-79
2023/02/25 00:54:32;;;;;;;18.95;2.42;;;;;;;2.53;100.00;100411.81;4973692;28;20121;-79
2023/02/25 00:56:58;;;;;;;13.68;2.53;;;;;;;2.44;100.00;100413.31;4985395;28;20125;-79
2023/02/25 00:59:23;;;;;;;15.68;2.08;;;;;;;2.51;100.00;100411.94;4971089;28;20031;-79
2023/02/25 01:01:49;;;;;;;28.95;4.60;;;;;;;2.42;100.00;100415.16;4971752;28;20030;-78
2023/02/25 01:04:14;;;;;;;21.27;2.35;;;;;;;2.40;100.00;100411.09;4970013;28;20488;-79
2023/02/25 01:06:40;;;;;;;13.48;2.33;;;;;;;2.40;100.00;100409.34;4966714;28;20035;-78
2023/02/25 01:09:14;;;;;;;15.70;1.90;;;;;;;2.48;100.00;100417.25;4952917;28;20034;-79
2023/02/25 01:11:43;;;;;;;17.85;2.50;;;;;;;2.31;100.00;100418.50;4969148;28;20126;-78
2023/02/25 01:14:27;;;;;;;15.15;2.20;;;;;;;2.36;100.00;100415.63;4990185;28;20049;-77
2023/02/25 01:16:56;;;;;;;17.73;2.63;;;;;;;2.38;100.00;100413.75;4974196;28;20040;-79
2023/02/25 01:19:23;;;;;;;16.88;2.13;;;;;;;2.35;100.00;100416.53;4965495;28;20019;-78
2023/02/25 01:21:52;;;;;;;15.15;3.17;;;;;;;2.46;100.00;100415.75;4968162;28;20516;-78
2023/02/25 01:24:26;;;;;;;16.58;2.28;;;;;;;2.37;100.00;100416.44;4973077;28;20034;-78
2023/02/25 01:26:55;;;;;;;16.40;2.40;;;;;;;2.38;100.00;100418.88;4966338;28;20042;-78
2023/02/25 01:29:26;;;;;;;16.67;3.00;;;;;;;2.31;100.00;100426.19;4972804;28;20038;-77
2023/02/25 01:31:54;;;;;;;21.90;2.63;;;;;;;2.36;100.00;100420.72;4988387;28;20101;-79
2023/02/25 01:34:21;;;;;;;11.93;2.03;;;;;;;2.41;100.00;100428.06;4989807;28;20448;-78
2023/02/25 01:36:47;;;;;;;17.48;2.20;;;;;;;2.32;100.00;100430.38;4974336;28;20093;-79
2023/02/25 01:39:15;;;;;;;19.25;2.30;;;;;;;2.39;100.00;100428.16;4988988;28;20141;-79
2023/02/25 01:41:41;;;;;;;25.80;2.50;;;;;;;2.38;100.00;100424.00;4973547;28;20735;-79
2023/02/25 01:44:14;;;;;;;12.52;2.53;;;;;;;2.38;100.00;100424.00;4984388;28;20537;-79
2023/02/25 01:46:42;;;;;;;19.27;3.78;;;;;;;2.42;100.00;100422.03;4967552;28;20099;-78
2023/02/25 01:49:27;;;;;;;21.88;2.67;;;;;;;2.33;100.00;100426.88;4970261;28;20031;-77
2023/02/25 01:52:00;;;;;;;20.20;2.38;;;;;;;2.40;100.00;100414.47;4967390;28;20646;-76
2023/02/25 01:54:26;;;;;;;22.13;2.10;;;;;;;2.44;100.00;100425.28;4952225;28;20039;-81
2023/02/25 01:56:55;;;;;;;16.05;2.42;;;;;;;2.50;100.00;100428.19;4952303;28;20123;-78
2023/02/25 01:59:25;;;;;;;19.33;2.75;;;;;;;2.49;100.00;100424.03;4971710;28;20023;-79
2023/02/25 02:01:51;;;;;;;15.00;2.15;;;;;;;2.42;100.00;100422.84;4971300;28;20038;-78
2023/02/25 02:04:18;;;;;;;18.27;3.40;;;;;;;2.43;100.00;100427.03;4970637;28;20449;-78
2023/02/25 02:06:46;;;;;;;26.10;2.80;;;;;;;2.48;100.00;100424.94;4964234;28;20093;-77
2023/02/25 02:09:26;;;;;;;16.13;2.85;;;;;;;2.51;100.00;100429.84;4965490;28;20057;-79
2023/02/25 02:11:52;;;;;;;21.48;3.13;;;;;;;2.46;100.00;100431.91;4970322;28;20405;-78
2023/02/25 02:14:32;;;;;;;11.88;2.38;;;;;;;2.53;100.00;100433.09;4966753;28;20042;-79
2023/02/25 02:17:12;;;;;;;11.68;2.38;;;;;;;2.47;100.00;100432.75;4961978;28;20035;-77
2023/02/25 02:19:46;;;;;;;18.13;2.20;;;;;;;2.47;100.00;100431.00;4985995;28;20034;-78
2023/02/25 02:22:39;;;;;;;28.48;3.65;;;;;;;2.57;100.00;100432.88;4988833;28;20049;-78
2023/02/25 02:25:26;;;;;;;15.45;2.58;;;;;;;2.63;100.00;100427.31;4986790;28;20043;-77
2023/02/25 02:28:06;;;;;;;15.43;3.00;;;;;;;2.53;100.00;100424.63;4975742;28;20526;-78
2023/02/25 02:30:51;;;;;;;20.33;3.08;;;;;;;2.49;100.00;100428.34;4987412;28;20027;-79
2023/02/25 02:33:39;;;;;;;27.23;2.60;;;;;;;2.46;100.00;100426.00;4971040;28;20030;-79
2023/02/25 02:36:13;;;;;;;24.10;3.63;;;;;;;2.57;100.00;100431.13;4987376;28;20062;-78
2023/02/25 02:38:56;;;;;;;21.30;3.78;;;;;;;2.57;100.00;100433.69;4972145;28;20038;-78
2023/02/25 02:41:33;;;;;;;15.85;3.72;;;;;;;2.49;100.00;100418.09;4974440;28;20096;-79
2023/02/25 02:44:14;;;;;;;25.27;4.18;;;;;;;2.47;100.00;100423.31;4972109;28;20045;-77
2023/02/25 02:46:48;;;;;;;14.40;3.45;;;;;;;2.47;100.00;100423.31;4971109;28;20063;-78
2023/02/25 02:49:33;;;;;;;13.50;2.38;;;;;;;2.47;100.00;100428.44;4974131;28;20030;-77
2023/02/25 02:52:04;;;;;;;15.13;3.08;;;;;;;2.46;100.00;100437.03;4969947;28;20560;-80
2023/02/25 02:54:37;;;;;;;28.65;2.30;;;;;;;2.53;100.00;100432.28;4991892;28;20038;-78
2023/02/25 02:57:07;;;;;;;26.23;2.83;;;;;;;2.56;100.00;100432.06;4970331;28;20444;-79
2023/02/25 02:59:41;;;;;;;12.60;2.22;;;;;;;2.61;100.00;100441.97;4971818;28;20057;-78
2023/02/25 03:02:19;;;;;;;16.38;2.40;;;;;;;2.59;100.00;100439.53;4986602;28;20608;-79
2023/02/25 03:04:49;;;;;;;23.63;2.65;;;;;;;2.53;100.00;100434.84;4990027;28;20404;-78
2023/02/25 03:07:16;;;;;;;21.80;3.00;;;;;;;2.59;100.00;100442.06;4970606;28;20070;-79
2023/02/25 03:09:48;;;;;;;18.63;2.45;;;;;;;2.60;100.00;100437.75;4973115;28;20555;-79
2023/02/25 03:12:14;;;;;;;17.60;2.55;;;;;;;2.47;100.00;100441.25;4960889;28;20050;-78
2023/02/25 03:14:39;;;;;;;15.65;2.20;;;;;;;2.56;100.00;100439.72;4967931;28;20158;-79
2023/02/25 03:17:12;;;;;;;12.98;2.08;;;;;;;2.47;100.00;100441.25;4985926;28;20042;-79
2023/02/25 03:19:58;;;;;;;13.30;2.50;;;;;;;2.49;100.00;100436.03;4955868;28;20035;-78
2023/02/25 03:22:38;;;;;;;15.40;2.55;;;;;;;2.52;100.00;100446.84;4965144;28;20073;-79
2023/02/25 03:25:14;;;;;;;13.15;2.53;;;;;;;2.54;100.00;100444.16;4969628;28;20031;-79
2023/02/25 03:27:46;;;;;;;22.17;2.88;;;;;;;2.43;100.00;100446.69;4969749;28;20386;-78
2023/02/25 03:30:38;;;;;;;20.17;2.28;;;;;;;2.55;100.00;100448.34;4968581;28;20115;-79
2023/02/25 03:33:09;;;;;;;19.30;2.63;;;;;;;2.55;100.00;100447.56;4984819;28;20409;-79
2023/02/25 03:35:37;;;;;;;25.70;3.90;;;;;;;2.48;100.00;100445.41;4967148;28;20042;-78
2023/02/25 03:38:15;;;;;;;26.40;3.67;;;;;;;2.47;100.00;100448.13;4968330;28;21038;-79
2023/02/25 03:40:42;;;;;;;23.02;3.55;;;;;;;2.39;100.00;100455.50;4952466;28;20054;-78
2023/02/25 03:43:16;;;;;;;19.13;2.88;;;;;;;2.42;100.00;100448.44;4968827;28;20125;-79
2023/02/25 03:45:43;;;;;;;23.00;2.85;;;;;;;2.38;100.00;100459.03;4973205;28;20496;-78
2023/02/25 03:48:13;;;;;;;17.08;2.67;;;;;;;2.38;100.00;100452.16;4969938;28;20042;-78
2023/02/25 03:50:46;;;;;;;19.13;2.40;;;;;;;2.52;100.00;100451.13;4976579;28;20404;-78
2023/02/25 03:53:12;;;;;;;18.20;4.63;;;;;;;2.47;100.00;100451.47;4985633;28;20039;-79
2023/02/25 03:55:54;;;;;;;18.65;2.40;;;;;;;2.57;100.00;100458.50;4970451;28;20417;-79
2023/02/25 03:58:20;;;;;;;16.10;1.80;;;;;;;2.49;100.00;100448.81;4987368;28;20440;-79
2023/02/25 04:00:49;;;;;;;17.42;2.63;;;;;;;2.51;100.00;100459.75;4958160;28;20047;-79
2023/02/25 04:03:15;;;;;;;12.07;1.85;;;;;;;2.48;100.00;100463.34;4967988;28;20031;-79
2023/02/25 04:05:40;;;;;;;10.98;1.77;;;;;;;2.41;100.00;100469.84;4968696;28;20041;-79
2023/02/25 04:08:14;;;;;;;22.95;2.35;;;;;;;2.51;100.00;100462.31;4982069;28;20038;-78
2023/02/25 04:10:44;;;;;;;16.80;4.20;;;;;;;2.46;100.00;100461.81;4972498;28;20103;-78
2023/02/25 04:13:11;;;;;;;16.10;2.05;;;;;;;2.47;100.00;100454.03;4983876;28;20030;-78
2023/02/25 04:15:38;;;;;;;19.67;3.45;;;;;;;2.54;100.00;100451.84;4980714;28;20651;-79
2023/02/25 04:18:03;;;;;;;28.58;2.90;;;;;;;2.56;100.00;100459.41;4953646;28;20022;-79
2023/02/25 04:20:29;;;;;;;17.77;1.75;;;;;;;2.47;100.00;100461.72;4980053;28;20568;-78
2023/02/25 04:22:55;;;;;;;17.45;4.20;;;;;;;2.55;100.00;100460.34;4956795;28;20022;-78
2023/02/25 04:25:21;;;;;;;19.92;2.58;;;;;;;2.63;100.00;100479.31;4973178;28;20065;-78
2023/02/25 04:27:46;;;;;;;36.42;3.45;;;;;;;2.55;100.00;100476.50;4984232;28;20037;-78
2023/02/25 04:30:13;;;;;;;22.17;3.05;;;;;;;2.61;100.00;100475.25;4954454;28;20109;-78
2023/02/25 04:32:39;;;;;;;22.25;3.15;;;;;;;2.59;100.00;100470.25;4977320;28;20042;-79
2023/02/25 04:35:08;;;;;;;20.58;2.92;;;;;;;2.62;100.00;100469.19;4968583;28;20030;-75
2023/02/25 04:37:33;;;;;;;29.92;2.83;;;;;;;2.58;100.00;100470.34;4984200;28;20477;-79
2023/02/25 04:39:59;;;;;;;19.17;3.13;;;;;;;2.53;100.00;100463.00;4967487;28;20041;-78
2023/02/25 04:42:24;;;;;;;15.73;2.45;;;;;;;2.58;100.00;100468.63;4985540;28;20030;-78
2023/02/25 04:44:49;;;;;;;25.40;4.85;;;;;;;2.58;100.00;100473.75;4973163;28;20031;-78
2023/02/25 04:47:17;;;;;;;18.50;2.20;;;;;;;2.46;100.00;100461.81;4968502;28;20042;-79
2023/02/25 04:49:46;;;;;;;20.13;1.92;;;;;;;2.58;100.00;100467.78;4985920;28;20130;-78
2023/02/25 04:52:13;;;;;;;28.25;4.90;;;;;;;2.59;100.00;100472.81;4975357;28;20535;-78
2023/02/25 04:54:39;;;;;;;16.50;2.38;;;;;;;2.65;100.00;100467.22;4989653;28;20730;-78
2023/02/25 04:57:05;;;;;;;21.05;2.55;;;;;;;2.65;100.00;100472.34;4968051;28;20091;-79
2023/02/25 04:59:31;;;;;;;20.63;2.15;;;;;;;2.61;100.00;100467.56;4974216;28;20038;-79
2023/02/25 05:01:56;;;;;;;21.60;2.60;;;;;;;2.50;100.00;100469.16;4985643;28;20047;-78
2023/02/25 05:04:22;;;;;;;18.85;2.58;;;;;;;2.50;100.00;100471.72;4956581;28;20078;-79
2023/02/25 05:06:47;;;;;;;19.02;2.45;;;;;;;2.57;100.00;100473.84;4969511;28;20043;-78
2023/02/25 05:09:12;;;;;;;17.02;2.58;;;;;;;2.54;100.00;100472.31;4966583;28;20035;-78
2023/02/25 05:11:38;;;;;;;24.80;4.03;;;;;;;2.61;100.00;100472.69;4968500;28;20039;-78
2023/02/25 05:14:03;;;;;;;13.90;1.63;;;;;;;2.56;100.00;100483.25;4953060;28;20023;-78
2023/02/25 05:16:29;;;;;;;19.70;2.47;;;;;;;2.51;100.00;100475.91;4953382;28;20069;-78
2023/02/25 05:18:54;;;;;;;46.20;12.20;;;;;;;2.55;100.00;100480.81;4981656;28;20018;-79
2023/02/25 05:21:23;;;;;;;87.43;30.83;;;;;;;2.51;100.00;100478.47;4968446;28;20062;-79
2023/02/25 05:23:50;;;;;;;74.10;27.80;;;;;;;2.53;100.00;100475.81;4950309;28;20037;-79
2023/02/25 05:26:20;;;;;;;71.88;25.92;;;;;;;2.48;100.00;100473.56;4967661;28;20493;-79
2023/02/25 05:28:50;;;;;;;48.63;13.98;;;;;;;2.52;100.00;100471.59;4972276;28;20035;-78
2023/02/25 05:31:16;;;;;;;34.33;7.18;;;;;;;2.58;100.00;100473.75;4969732;28;20083;-77
2023/02/25 05:33:42;;;;;;;83.15;31.67;;;;;;;2.48;100.00;100468.44;4952973;28;20027;-78
2023/02/25 05:36:09;;;;;;;36.25;10.52;;;;;;;2.46;100.00;100472.88;4952365;28;20401;-79
2023/02/25 05:38:35;;;;;;;33.38;11.23;;;;;;;2.34;100.00;100471.22;4986687;28;20056;-79
2023/02/25 05:41:01;;;;;;;23.98;6.82;;;;;;;2.39;100.00;100487.03;4984794;28;20509;-79
2023/02/25 05:43:27;;;;;;;44.28;7.45;;;;;;;2.25;100.00;100479.56;4973569;28;20053;-78
2023/02/25 05:45:54;;;;;;;25.48;4.35;;;;;;;2.44;100.00;100481.59;4968541;28;20043;-78
2023/02/25 05:48:19;;;;;;;32.03;5.50;;;;;;;2.52;100.00;100485.25;4957829;28;20035;-79
2023/02/25 05:50:45;;;;;;;35.65;7.32;;;;;;;2.43;100.00;100485.91;4966564;28;20632;-79
2023/02/25 05:53:11;;;;;;;40.92;11.82;;;;;;;2.34;100.00;100479.69;4966627;28;20042;-79
2023/02/25 05:55:41;;;;;;;18.42;3.97;;;;;;;2.40;100.00;100485.31;4979100;28;20086;-78
2023/02/25 05:58:07;;;;;;;32.25;8.73;;;;;;;2.44;100.00;100482.41;4968235;28;20035;-79
2023/02/25 06:00:32;;;;;;;34.42;9.20;;;;;;;2.41;100.00;100494.59;4950073;28;20051;-79
2023/02/25 06:02:58;;;;;;;17.98;5.07;;;;;;;2.45;100.00;100488.34;4970479;28;20582;-79
2023/02/25 06:05:23;;;;;;;22.30;4.43;;;;;;;2.41;100.00;100489.50;4969419;28;20556;-79
2023/02/25 06:07:49;;;;;;;13.32;2.47;;;;;;;2.41;100.00;100497.16;4962310;28;20255;-79
2023/02/25 06:10:14;;;;;;;27.48;4.05;;;;;;;2.40;100.00;100495.56;4969481;28;20046;-79
2023/02/25 06:12:40;;;;;;;15.90;3.22;;;;;;;2.34;100.00;100492.50;4969394;28;20035;-78
2023/02/25 06:15:06;;;;;;;20.42;5.28;;;;;;;2.39;100.00;100496.47;4971504;28;20031;-79
2023/02/25 06:17:31;;;;;;;25.38;4.95;;;;;;;2.38;100.00;100490.53;4973037;28;20033;-79
2023/02/25 06:19:57;;;;;;;21.23;4.40;;;;;;;2.39;100.00;100492.16;4988648;28;20477;-79
2023/02/25 06:22:22;;;;;;;30.08;4.07;;;;;;;2.42;100.00;100489.38;4971683;28;20045;-79
2023/02/25 06:24:47;;;;;;;21.40;3.70;;;;;;;2.35;100.00;100495.88;4957719;28;20042;-78
2023/02/25 06:27:14;;;;;;;26.65;4.20;;;;;;;2.31;100.00;100494.47;4973797;28;20031;-79
2023/02/25 06:29:40;;;;;;;16.77;2.75;;;;;;;2.42;100.00;100506.50;4988229;28;20484;-79
2023/02/25 06:32:07;;;;;;;21.20;3.53;;;;;;;2.42;100.00;100498.81;4969849;28;20058;-78
2023/02/25 06:34:33;;;;;;;22.05;3.60;;;;;;;2.39;100.00;100509.25;4970521;28;20378;-79
2023/02/25 06:36:59;;;;;;;17.98;4.20;;;;;;;2.44;100.00;100520.00;4987538;28;20042;-79
2023/02/25 06:39:25;;;;;;;22.95;3.47;;;;;;;2.43;100.00;100520.91;4953554;28;20035;-78
2023/02/25 06:41:51;;;;;;;17.38;4.32;;;;;;;2.30;100.00;100521.78;4953117;28;20489;-78
2023/02/25 06:44:16;;;;;;;13.25;2.25;;;;;;;2.34;100.00;100519.84;4955567;28;20034;-78
2023/02/25 06:46:42;;;;;;;18.13;2.25;;;;;;;2.29;100.00;100515.03;4970403;28;20488;-78
2023/02/25 06:49:07;;;;;;;14.77;2.78;;;;;;;2.47;100.00;100517.22;4968977;28;20039;-79
2023/02/25 06:51:33;;;;;;;19.40;2.65;;;;;;;2.50;100.00;100533.16;4970269;28;20042;-78
2023/02/25 06:53:58;;;;;;;16.65;4.13;;;;;;;2.49;100.00;100536.66;4968643;28;20088;-79
2023/02/25 06:56:25;;;;;;;14.40;2.45;;;;;;;2.50;100.00;100540.03;4970620;28;20097;-78
2023/02/25 06:58:52;;;;;;;17.15;3.17;;;;;;;2.41;100.00;100527.88;4971656;28;20045;-78
2023/02/25 07:01:17;;;;;;;21.17;3.22;;;;;;;2.51;100.00;100536.53;4972165;28;20433;-78
2023/02/25 07:03:42;;;;;;;25.30;4.07;;;;;;;2.45;100.00;100549.75;4965470;28;20039;-79
2023/02/25 07:06:09;;;;;;;18.85;2.38;;;;;;;2.56;100.00;100541.31;4967467;28;20460;-79
2023/02/25 07:08:34;;;;;;;23.90;3.85;;;;;;;2.67;100.00;100551.59;4986600;28;20039;-78
2023/02/25 07:11:28;;;;;;;27.42;4.18;;;;;;;2.57;100.00;100550.66;4970397;28;20035;-79
2023/02/25 07:13:54;;;;;;;22.60;2.83;;;;;;;2.63;100.00;100563.00;4971501;28;20023;-80
2023/02/25 07:16:19;;;;;;;26.13;2.90;;;;;;;2.62;100.00;100558.78;4986090;28;20042;-79
2023/02/25 07:18:46;;;;;;;18.50;2.92;;;;;;;2.71;100.00;100558.13;4958404;28;20038;-79
2023/02/25 07:21:12;;;;;;;19.27;2.58;;;;;;;2.68;100.00;100556.63;4956309;28;20039;-79
2023/02/25 07:23:38;;;;;;;31.85;2.85;;;;;;;2.66;100.00;100558.47;4985111;28;20527;-79
2023/02/25 07:26:05;;;;;;;23.42;4.53;;;;;;;2.73;100.00;100563.97;4970712;28;20042;-77
2023/02/25 07:28:31;;;;;;;16.85;3.25;;;;;;;2.70;100.00;100559.88;4975965;28;20034;-78
2023/02/25 07:31:01;;;;;;;18.35;2.50;;;;;;;2.78;100.00;100561.88;4983067;28;20436;-78
2023/02/25 07:33:30;;;;;;;24.90;2.72;;;;;;;2.73;100.00;100563.97;4970313;28;20026;-77
2023/02/25 07:35:56;;;;;;;26.38;3.08;;;;;;;2.87;100.00;100561.22;4972162;28;20038;-79
2023/02/25 07:38:22;;;;;;;24.65;4.85;;;;;;;2.96;100.00;100566.59;4972388;28;20077;-80
2023/02/25 07:40:47;;;;;;;23.73;4.07;;;;;;;3.05;100.00;100564.19;4985240;28;20042;-77
2023/02/25 07:43:13;;;;;;;18.77;2.17;;;;;;;3.11;99.38;100562.94;4957115;28;20035;-80
2023/02/25 07:45:39;;;;;;;23.23;3.08;;;;;;;3.22;99.40;100562.13;4950302;28;20541;-79
2023/02/25 07:48:04;;;;;;;28.60;3.55;;;;;;;3.45;98.88;100556.09;4970464;28;20112;-79
2023/02/25 07:50:30;;;;;;;22.63;3.50;;;;;;;3.60;97.69;100560.97;4985175;28;20497;-79
2023/02/25 07:52:56;;;;;;;28.85;3.58;;;;;;;3.53;97.20;100568.34;4987900;28;20033;-79
2023/02/25 07:55:21;;;;;;;18.58;2.75;;;;;;;3.33;97.59;100564.69;4972081;28;20038;-79
2023/02/25 07:57:47;;;;;;;24.63;5.15;;;;;;;3.15;98.74;100572.03;4967070;28;20461;-80
2023/02/25 08:00:12;;;;;;;20.38;3.03;;;;;;;3.17;99.13;100570.16;4968420;28;20030;-79
2023/02/25 08:02:38;;;;;;;26.88;3.45;;;;;;;3.10;98.79;100581.78;4983142;28;20050;-78
2023/02/25 08:05:05;;;;;;;20.13;2.47;;;;;;;3.27;99.18;100577.97;4973990;28;20034;-79
2023/02/25 08:07:31;;;;;;;27.45;3.42;;;;;;;3.33;98.86;100589.50;4972055;28;20089;-79
2023/02/25 08:09:56;;;;;;;24.85;3.08;;;;;;;3.43;98.60;100583.59;4974685;28;20034;-78
2023/02/25 08:12:22;;;;;;;29.73;4.57;;;;;;;3.47;97.88;100581.63;4967903;28;20508;-78
2023/02/25 08:14:47;;;;;;;20.17;3.03;;;;;;;3.54;98.27;100580.22;4974237;28;20035;-79
2023/02/25 08:17:13;;;;;;;31.48;4.38;;;;;;;3.66;97.56;100575.91;4972544;28;20043;-79
2023/02/25 08:19:40;;;;;;;24.77;3.72;;;;;;;4.24;95.19;100575.75;4971623;28;20069;-79
2023/02/25 08:22:06;;;;;;;20.13;2.80;;;;;;;4.27;93.52;100578.88;4954518;28;20080;-79
2023/02/25 08:24:31;;;;;;;19.58;2.65;;;;;;;4.38;93.52;100590.06;4968465;28;20023;-78
2023/02/25 08:26:57;;;;;;;17.30;2.47;;;;;;;4.29;93.08;100584.72;4968045;28;21061;-80
2023/02/25 08:29:23;;;;;;;18.95;2.83;;;;;;;4.17;93.91;100590.00;4971061;28;20037;-78
2023/02/25 08:31:50;;;;;;;22.38;3.53;;;;;;;4.11;94.81;100591.28;4973422;28;20030;-79
2023/02/25 08:34:16;;;;;;;25.35;2.45;;;;;;;4.02;95.73;100595.38;4972271;28;20485;-80
2023/02/25 08:36:43;;;;;;;22.35;2.47;;;;;;;3.80;95.32;100596.19;4971164;28;20031;-79
2023/02/25 08:39:09;;;;;;;22.23;2.78;;;;;;;3.84;96.37;100591.63;4969274;28;20086;-78
2023/02/25 08:41:35;;;;;;;31.75;3.00;;;;;;;3.84;96.26;100596.78;4968715;28;20034;-76
2023/02/25 08:44:01;;;;;;;21.23;2.80;;;;;;;3.90;96.49;100599.69;4971540;28;20078;-79
2023/02/25 08:46:30;;;;;;;27.10;3.85;;;;;;;3.88;96.77;100605.84;4969057;28;20043;-79
2023/02/25 08:48:56;;;;;;;16.50;2.45;;;;;;;3.82;96.62;100604.56;4985539;28;20037;-76
2023/02/25 08:51:23;;;;;;;37.13;6.15;;;;;;;3.84;96.74;100596.78;4952721;28;20039;-78
2023/02/25 08:53:49;;;;;;;20.40;2.92;;;;;;;3.81;96.18;100609.84;4969535;28;20141;-79
2023/02/25 08:56:15;;;;;;;15.68;2.50;;;;;;;3.83;96.87;100611.34;4949862;28;20087;-78
2023/02/25 08:58:41;;;;;;;19.98;2.92;;;;;;;3.98;97.00;100611.94;4966302;28;20041;-76
2023/02/25 09:01:15;;;;;;;17.20;2.20;;;;;;;4.07;96.15;100608.66;4965887;28;20039;-79
2023/02/25 09:03:50;;;;;;;14.85;3.10;;;;;;;4.17;95.11;100600.25;4966880;28;20031;-79
2023/02/25 09:06:16;;;;;;;26.05;3.45;;;;;;;4.11;94.06;100604.13;4985852;28;20077;-79
2023/02/25 09:08:42;;;;;;;20.27;2.42;;;;;;;4.20;93.49;100598.28;4969227;28;20031;-78
2023/02/25 09:11:07;;;;;;;20.35;2.13;;;;;;;4.32;93.96;100593.13;4951070;28;20046;-79
2023/02/25 09:13:33;;;;;;;22.75;2.03;;;;;;;4.27;93.48;100598.59;4977759;28;20551;-80
2023/02/25 09:15:59;;;;;;;21.42;3.08;;;;;;;4.26;93.47;100607.25;4975240;28;20035;-79
2023/02/25 09:18:25;;;;;;;22.52;2.85;;;;;;;4.21;93.96;100614.47;4969618;28;20058;-78
2023/02/25 09:20:51;;;;;;;21.27;3.80;;;;;;;4.40;95.07;100614.66;4952636;28;20149;-78
2023/02/25 09:23:16;;;;;;;23.67;3.70;;;;;;;4.42;94.60;100609.41;4959860;28;20629;-80
2023/02/25 09:25:43;;;;;;;18.90;2.22;;;;;;;4.38;94.44;100629.38;4971311;28;20475;-80
2023/02/25 09:28:09;;;;;;;15.63;1.83;;;;;;;4.34;93.96;100625.41;4972152;28;20416;-80
2023/02/25 09:30:35;;;;;;;14.20;2.55;;;;;;;4.35;94.94;100633.94;4964204;28;20039;-79
2023/02/25 09:33:00;;;;;;;18.55;2.00;;;;;;;4.27;94.88;100637.91;4957642;28;20118;-79
2023/02/25 09:35:25;;;;;;;25.85;3.50;;;;;;;4.51;95.37;100625.88;4973998;28;20031;-80
2023/02/25 09:37:51;;;;;;;14.65;2.13;;;;;;;4.37;95.13;100639.75;4986853;28;20039;-79
2023/02/25 09:40:21;;;;;;;14.93;1.95;;;;;;;4.42;93.67;100637.66;4952303;28;20030;-80
2023/02/25 09:43:07;;;;;;;17.20;2.13;;;;;;;4.26;93.19;100644.00;4973051;28;20428;-80
2023/02/25 09:45:35;;;;;;;17.35;2.28;;;;;;;4.35;94.67;100636.50;4949623;28;20061;-80
2023/02/25 09:48:14;;;;;;;21.38;2.17;;;;;;;4.49;94.95;100634.50;4985191;28;20030;-79
2023/02/25 09:50:45;;;;;;;17.92;2.03;;;;;;;4.49;94.78;100647.31;4979027;28;20050;-79
2023/02/25 09:53:16;;;;;;;18.92;2.30;;;;;;;4.35;96.18;100649.34;4977091;28;20067;-79
2023/02/25 09:55:46;;;;;;;18.50;1.92;;;;;;;4.54;96.68;100651.28;4972079;28;20062;-79
2023/02/25 09:58:30;;;;;;;18.73;2.53;;;;;;;4.36;96.53;100659.50;4971827;28;20043;-79
2023/02/25 10:01:35;;;;;;;13.23;2.65;;;;;;;4.25;97.08;100673.16;4971459;28;20046;-80
2023/02/25 10:04:08;;;;;;;22.00;2.92;;;;;;;4.09;98.95;100665.81;4987997;28;20085;-80
2023/02/25 10:06:42;;;;;;;14.65;2.17;;;;;;;3.92;100.00;100662.88;4976871;28;20038;-79
2023/02/25 10:09:28;;;;;;;15.50;2.03;;;;;;;3.92;100.00;100668.84;4970160;28;20423;-80
2023/02/25 10:12:31;;;;;;;18.30;2.38;;;;;;;3.93;100.00;100675.59;4971535;28;20042;-79
2023/02/25 10:15:15;;;;;;;13.68;2.38;;;;;;;4.01;100.00;100672.47;4973007;28;20031;-78
2023/02/25 10:18:19;;;;;;;18.33;2.80;;;;;;;4.09;100.00;100686.34;4969873;28;20051;-80
2023/02/25 10:20:51;;;;;;;23.40;3.38;;;;;;;4.33;100.00;100690.53;4985402;28;20035;-80
2023/02/25 10:23:59;;;;;;;16.42;2.47;;;;;;;4.37;100.00;100689.38;4973595;28;20038;-80
2023/02/25 10:26:32;;;;;;;19.15;2.58;;;;;;;4.35;100.00;100687.84;4969793;28;20628;-80
2023/02/25 10:29:03;;;;;;;16.25;2.40;;;;;;;4.36;100.00;100689.50;4987049;28;20041;-77
2023/02/25 10:31:30;;;;;;;19.77;2.78;;;;;;;4.51;100.00;100687.50;4969695;28;20066;-80
2023/02/25 10:33:57;;;;;;;15.85;2.28;;;;;;;4.61;99.21;100685.81;4974987;28;20037;-79
2023/02/25 10:36:43;;;;;;;11.48;1.77;;;;;;;4.76;98.26;100699.22;4971805;28;20039;-78
2023/02/25 10:39:10;;;;;;;13.77;1.85;;;;;;;4.66;98.16;100701.72;4989438;28;20070;-78
2023/02/25 10:41:36;;;;;;;7.85;1.67;;;;;;;4.78;97.32;100700.72;4985623;28;20058;-80
2023/02/25 10:44:01;;;;;;;9.27;1.40;;;;;;;4.93;96.92;100708.19;4976314;28;20030;-80
2023/02/25 10:46:42;;;;;;;13.35;3.17;;;;;;;4.99;95.49;100700.81;4969325;28;20097;-80
2023/02/25 10:49:20;;;;;;;16.80;2.58;;;;;;;4.94;95.12;100713.19;4979176;28;20552;-81
2023/02/25 10:52:16;;;;;;;18.42;1.80;;;;;;;4.93;94.23;100728.72;4986321;28;20089;-79
2023/02/25 10:54:50;;;;;;;11.43;1.58;;;;;;;4.97;93.00;100720.69;4968634;28;20050;-80
2023/02/25 10:57:40;;;;;;;10.82;2.10;;;;;;;4.99;93.41;100723.94;4981971;28;20075;-78
2023/02/25 11:00:28;;;;;;;14.43;2.75;;;;;;;4.98;92.90;100735.16;4966752;28;20105;-80
2023/02/25 11:02:56;;;;;;;8.93;1.10;;;;;;;4.86;90.11;100734.34;4951614;28;20047;-79
2023/02/25 11:05:37;;;;;;;14.27;1.75;;;;;;;4.89;90.95;100733.28;4973973;28;20046;-80
2023/02/25 11:08:27;;;;;;;6.18;1.48;;;;;;;4.94;90.75;100738.91;4974653;28;20038;-80
2023/02/25 11:11:02;;;;;;;7.60;1.40;;;;;;;5.08;91.76;100735.22;4992851;28;20047;-77
2023/02/25 11:13:30;;;;;;;13.63;2.15;;;;;;;4.99;91.34;100733.38;4971263;28;20061;-80
2023/02/25 11:16:04;;;;;;;10.13;1.27;;;;;;;5.02;89.62;100733.16;4987657;28;20042;-78
2023/02/25 11:18:31;;;;;;;10.23;1.75;;;;;;;5.11;88.48;100729.84;4978379;28;20045;-79
2023/02/25 11:21:01;;;;;;;7.70;1.40;;;;;;;4.98;86.10;100722.28;4970696;28;20046;-79
2023/02/25 11:23:40;;;;;;;6.30;1.40;;;;;;;4.88;85.64;100737.63;4976885;28;20034;-80
2023/02/25 11:26:07;;;;;;;4.68;0.98;;;;;;;4.95;85.19;100737.94;4990006;28;20050;-80
2023/02/25 11:28:45;;;;;;;6.95;1.30;;;;;;;5.06;85.38;100734.53;4975728;28;20026;-80
2023/02/25 11:31:20;;;;;;;10.93;1.30;;;;;;;4.99;84.94;100746.22;4957728;28;20043;-78